CheckWX is a tool to help pilots better visualize weather data.  It is not intended as a substitute for an official pre-flight weather briefing.

10:18:00 UTC

LLBG TAF
Ben Gurion International Airport
Tel Aviv, Israel
TAF LLBG 140505Z 1406/1506 17008KT CAVOK BECMG 1409/1411 22012KT BECMG 1416/1418 17008KT PROB30 1502/1506 9999 -RA FEW045TCU BKN050 TX18/1412Z TN13/1504Z

Dec-14@
06:00 UTC

Dec-14 @ 06:00 UTC

Dec-14@
09:00 UTC

Dec-14 @ 09:00 UTC

TAF LLBG 140505Z 1406/1506 17008KT CAVOK

Expired

Wind
  • 170° at 8 KTS
Conditions
No significant weather
Cloud Levels
  • No significant clouds

Dec-14@
09:00 UTC

Dec-14 @ 09:00 UTC

Dec-14@
16:00 UTC

Dec-14 @ 16:00 UTC

BECMG 1409/1411 22012KT

Becoming

Becoming Conditions expected by Sat, Dec 14, 2019 @ 11:00 UTC

Wind
  • 220° at 12 KTS
Conditions
No significant weather
Cloud Levels
  • No significant clouds

Dec-14@
16:00 UTC

Dec-14 @ 16:00 UTC

Dec-15@
06:00 UTC

Dec-15 @ 06:00 UTC

BECMG 1416/1418 17008KT

Becoming

Becoming Conditions expected by Sat, Dec 14, 2019 @ 18:00 UTC

Wind
  • 170° at 8 KTS
Conditions
No significant weather
Cloud Levels
  • No significant clouds

Dec-15@
02:00 UTC

Dec-15 @ 02:00 UTC

Dec-15@
06:00 UTC

Dec-15 @ 06:00 UTC

PROB30 1502/1506 9999 -RA FEW045TCU BKN050 TX18/1412Z TN13/1504Z

Probable - 30% Likelihood

Probable - 30% Likelihood during this time.

Conditions
Light Rain
Cloud Levels
  • Few at 4,500' AGL
  • Broken at 5,000' AGL